YSNW/NOA METAR and TAF weather

Enter ICAO airport designator
Station Type Date Time Source
YSNW METAR 2022/06/25 02:19 UTC NOAA

YSNW 250219Z AUTO 27015G25KT 9999 // NCD 18/04 Q1019


Station Type Date Time Source
YSNW Decoded METAR 2022/06/25 02:19 UTC NOAA

Nowra Ran Air Station, Australia (YSNW) 34-57S 150-32E 110M
Jun 24, 2022 - 10:19 PM EDT / 2022.06.25 0219 UTC
Wind: from the W (270 degrees) at 17 MPH (15 KT) gusting to 29 MPH (25 KT):0
Visibility: greater than 7 mile(s):0
Temperature: 64 F (18 C)
Dew Point: 39 F (4 C)
Relative Humidity: 39%
Pressure (altimeter): 30.09 in. Hg (1019 hPa)
ob: YSNW 250219Z AUTO 27015G25KT 9999 // NCD 18/04 Q1019
cycle: 2

Station Type Date Time Source
YSNW TAF UTC NOAA

Error!

Example: see airport list